createdAt,value
2022-10-30T00:00:56.683Z,40.25
2022-10-30T00:03:24.511Z,39.95
2022-10-30T00:05:52.773Z,41.20
2022-10-30T00:08:21.874Z,38.55
2022-10-30T00:10:52.724Z,37.65
2022-10-30T00:13:21.240Z,37.25
2022-10-30T00:15:53.658Z,35.97
2022-10-30T00:18:21.718Z,36.60
2022-10-30T00:20:49.855Z,38.47
2022-10-30T00:23:17.296Z,39.08
2022-10-30T00:25:45.063Z,38.58
2022-10-30T00:28:13.206Z,40.83
2022-10-30T00:30:40.800Z,36.78
2022-10-30T00:33:08.161Z,37.13
2022-10-30T00:35:35.804Z,36.03
2022-10-30T00:38:03.242Z,37.45
2022-10-30T00:40:31.001Z,35.30
2022-10-30T00:42:59.129Z,39.15
2022-10-30T00:45:28.625Z,36.28
2022-10-30T00:48:01.180Z,34.83
2022-10-30T00:50:35.796Z,36.00
2022-10-30T00:53:08.208Z,36.08
2022-10-30T00:55:44.320Z,36.78
2022-10-30T00:58:16.555Z,34.55
2022-10-30T01:00:47.337Z,33.38
2022-10-30T01:03:15.959Z,31.75
2022-10-30T01:05:46.066Z,30.45
2022-10-30T01:08:13.767Z,32.10
2022-10-30T01:10:41.849Z,32.80
2022-10-30T01:13:09.869Z,33.08
2022-10-30T01:15:41.435Z,31.50
2022-10-30T01:18:54.803Z,31.33
2022-10-30T01:21:45.054Z,31.45
2022-10-30T01:24:25.794Z,29.92
2022-10-30T01:27:06.795Z,30.45
2022-10-30T01:29:49.976Z,32.28
2022-10-30T01:32:38.287Z,30.20
2022-10-30T01:35:15.660Z,30.58
2022-10-30T01:37:49.955Z,30.80
2022-10-30T01:40:18.943Z,29.80
2022-10-30T01:42:54.715Z,31.70
2022-10-30T01:45:46.065Z,30.73
2022-10-30T01:48:35.905Z,31.12
2022-10-30T01:51:22.740Z,30.25
2022-10-30T01:54:01.963Z,30.80
2022-10-30T01:56:48.272Z,30.98
2022-10-30T01:59:21.161Z,30.33
2022-10-30T02:01:49.632Z,31.25
2022-10-30T02:04:17.621Z,27.67
2022-10-30T02:06:45.535Z,27.58
2022-10-30T02:09:15.868Z,26.55
2022-10-30T02:11:46.790Z,25.00
2022-10-30T02:14:17.313Z,26.33
2022-10-30T02:16:48.966Z,25.90
2022-10-30T02:19:19.142Z,26.00
2022-10-30T02:21:47.081Z,26.37
2022-10-30T02:24:14.454Z,26.02
2022-10-30T02:26:42.589Z,25.10
2022-10-30T02:29:10.211Z,25.48
2022-10-30T02:31:38.047Z,23.50
2022-10-30T02:34:05.996Z,22.77
2022-10-30T02:36:33.741Z,23.83
2022-10-30T02:39:01.340Z,23.23
2022-10-30T02:41:29.247Z,22.23
2022-10-30T02:43:56.997Z,24.58
2022-10-30T02:46:24.784Z,21.98
2022-10-30T02:48:52.438Z,23.12
2022-10-30T02:51:20.177Z,22.60
2022-10-30T02:53:48.624Z,20.27
2022-10-30T02:56:16.654Z,20.48
2022-10-30T02:58:44.195Z,21.15
2022-10-30T03:01:17.433Z,21.12
2022-10-30T03:03:46.056Z,23.50
2022-10-30T03:06:15.823Z,22.17
2022-10-30T03:08:43.714Z,22.75
2022-10-30T03:11:15.442Z,23.45
2022-10-30T03:13:44.650Z,22.73
2022-10-30T03:16:18.097Z,22.33
2022-10-30T03:18:46.301Z,23.17
2022-10-30T03:21:18.030Z,22.98
2022-10-30T03:23:46.183Z,22.65
2022-10-30T03:26:13.840Z,24.08
2022-10-30T03:28:42.118Z,22.08
2022-10-30T03:31:16.097Z,20.80
2022-10-30T03:33:44.320Z,19.33
2022-10-30T03:36:13.816Z,21.50
2022-10-30T03:38:42.113Z,21.73
2022-10-30T03:41:10.794Z,20.92
2022-10-30T03:43:38.366Z,19.73
2022-10-30T03:46:06.373Z,21.02
2022-10-30T03:48:34.685Z,20.90
2022-10-30T03:51:03.022Z,20.20
2022-10-30T03:53:31.484Z,21.17
2022-10-30T03:56:01.654Z,19.55
2022-10-30T03:58:29.986Z,20.35
2022-10-30T04:01:02.610Z,19.62
2022-10-30T04:03:31.040Z,18.00
2022-10-30T04:05:59.232Z,17.92
2022-10-30T04:08:27.045Z,16.75
2022-10-30T04:10:54.992Z,18.05
2022-10-30T04:13:23.697Z,16.65
2022-10-30T04:15:57.217Z,18.05
2022-10-30T04:18:26.051Z,15.55
2022-10-30T04:20:53.760Z,16.50
2022-10-30T04:23:22.131Z,15.82
2022-10-30T04:25:50.349Z,15.80
2022-10-30T04:28:18.725Z,15.40
2022-10-30T04:30:47.866Z,16.37
2022-10-30T04:33:15.899Z,15.45
2022-10-30T04:35:43.971Z,16.87
2022-10-30T04:38:14.272Z,15.80
2022-10-30T04:40:46.037Z,15.68
2022-10-30T04:43:14.481Z,15.23
2022-10-30T04:45:42.550Z,15.18
2022-10-30T04:48:18.116Z,15.95
2022-10-30T04:50:47.062Z,16.33
2022-10-30T04:53:17.721Z,15.45
2022-10-30T04:55:45.602Z,15.40
2022-10-30T04:58:14.183Z,14.52
2022-10-30T05:00:43.264Z,14.85
2022-10-30T05:03:22.706Z,13.35
2022-10-30T05:06:19.622Z,13.57
2022-10-30T05:08:47.576Z,13.75
2022-10-30T05:11:16.940Z,13.98
2022-10-30T05:13:44.759Z,13.20
2022-10-30T05:16:12.290Z,14.32
2022-10-30T05:18:39.948Z,14.27
2022-10-30T05:21:07.492Z,15.02
2022-10-30T05:23:35.013Z,14.43
2022-10-30T05:26:03.509Z,14.65
2022-10-30T05:28:31.615Z,14.18
2022-10-30T05:30:59.556Z,12.63
2022-10-30T05:33:29.864Z,13.77
2022-10-30T05:35:57.706Z,14.05
2022-10-30T05:38:25.455Z,15.40
2022-10-30T05:40:53.700Z,13.82
2022-10-30T05:43:21.050Z,13.52
2022-10-30T05:45:49.921Z,14.02
2022-10-30T05:48:18.485Z,14.00
2022-10-30T05:50:46.691Z,13.00
2022-10-30T05:53:14.818Z,14.10
2022-10-30T05:55:43.934Z,13.90
2022-10-30T05:58:12.243Z,13.55
2022-10-30T06:00:41.264Z,14.18
2022-10-30T06:03:12.050Z,13.95
2022-10-30T06:05:40.249Z,14.75
2022-10-30T06:08:08.512Z,15.77
2022-10-30T06:10:37.742Z,15.38
2022-10-30T06:13:07.325Z,14.85
2022-10-30T06:15:35.579Z,15.38
2022-10-30T06:18:03.771Z,14.45
2022-10-30T06:20:32.459Z,15.77
2022-10-30T06:23:01.909Z,14.57
2022-10-30T06:25:37.894Z,14.52
2022-10-30T06:28:11.803Z,14.02
2022-10-30T06:30:39.960Z,14.50
2022-10-30T06:33:08.014Z,14.85
2022-10-30T06:35:35.970Z,14.50
2022-10-30T06:38:05.052Z,14.77
2022-10-30T06:40:33.443Z,14.32
2022-10-30T06:43:01.545Z,15.07
2022-10-30T06:45:29.597Z,14.07
2022-10-30T06:47:58.113Z,14.27
2022-10-30T06:50:26.662Z,13.55
2022-10-30T06:52:55.728Z,13.90
2022-10-30T06:55:23.606Z,14.23
2022-10-30T06:57:56.641Z,13.65
2022-10-30T07:00:25.422Z,15.07
2022-10-30T07:03:01.190Z,15.88
2022-10-30T07:05:29.887Z,15.00
2022-10-30T07:07:58.460Z,15.57
2022-10-30T07:10:26.100Z,14.82
2022-10-30T07:12:57.418Z,15.35
2022-10-30T07:15:30.281Z,15.23
2022-10-30T07:18:01.795Z,16.50
2022-10-30T07:20:33.029Z,18.02
2022-10-30T07:23:01.754Z,16.85
2022-10-30T07:25:30.422Z,16.87
2022-10-30T07:28:02.250Z,17.33
2022-10-30T07:30:30.975Z,16.12
2022-10-30T07:33:03.125Z,17.45
2022-10-30T07:35:32.538Z,16.48
2022-10-30T07:38:07.026Z,15.75
2022-10-30T07:40:35.457Z,16.95
2022-10-30T07:43:05.846Z,16.50
2022-10-30T07:45:34.401Z,16.35
2022-10-30T07:48:06.297Z,16.90
2022-10-30T07:50:33.964Z,16.58
2022-10-30T07:53:02.171Z,17.23
2022-10-30T07:55:30.195Z,17.60
2022-10-30T07:57:59.628Z,17.23
2022-10-30T08:00:29.321Z,18.27
2022-10-30T08:02:58.799Z,19.48
2022-10-30T08:05:29.049Z,16.40
2022-10-30T08:07:59.793Z,16.90
2022-10-30T08:10:28.725Z,16.17
2022-10-30T08:12:56.343Z,16.73
2022-10-30T08:15:24.265Z,16.50
2022-10-30T08:17:52.420Z,16.33
2022-10-30T08:20:23.099Z,16.30
2022-10-30T08:22:56.472Z,16.80
2022-10-30T08:25:28.788Z,16.63
2022-10-30T08:27:59.190Z,17.00
2022-10-30T08:30:30.707Z,17.67
2022-10-30T08:33:00.931Z,17.17
2022-10-30T08:35:32.848Z,17.02
2022-10-30T08:38:03.012Z,18.25
2022-10-30T08:40:31.193Z,16.55
2022-10-30T08:42:58.747Z,17.35
2022-10-30T08:45:29.977Z,17.02
2022-10-30T08:48:04.770Z,16.52
2022-10-30T08:50:35.318Z,16.10
2022-10-30T08:53:04.725Z,17.15
2022-10-30T08:55:33.668Z,15.95
2022-10-30T08:58:02.674Z,17.15
2022-10-30T09:00:30.652Z,16.05
2022-10-30T09:03:01.979Z,16.95
2022-10-30T09:05:33.756Z,17.30
2022-10-30T09:08:04.636Z,16.60
2022-10-30T09:10:34.400Z,16.80
2022-10-30T09:13:04.795Z,16.60
2022-10-30T09:15:32.176Z,16.87
2022-10-30T09:18:03.014Z,17.08
2022-10-30T09:20:31.109Z,16.75
2022-10-30T09:22:59.303Z,16.10
2022-10-30T09:25:27.897Z,15.80
2022-10-30T09:27:56.469Z,15.77
2022-10-30T09:30:24.886Z,76.97
2022-10-30T09:32:58.097Z,29.63
2022-10-30T09:35:29.336Z,20.20
2022-10-30T09:37:58.324Z,16.60
2022-10-30T09:40:54.569Z,18.95
2022-10-30T09:43:41.663Z,14.82
2022-10-30T09:46:50.584Z,15.93
2022-10-30T09:49:33.914Z,15.18
2022-10-30T09:52:09.276Z,14.43
2022-10-30T09:55:08.982Z,15.05
2022-10-30T09:57:45.494Z,13.32
2022-10-30T10:00:15.597Z,14.63
2022-10-30T10:03:18.089Z,14.13
2022-10-30T10:05:55.927Z,15.00
2022-10-30T10:08:39.180Z,14.48
2022-10-30T10:11:15.725Z,14.87
2022-10-30T10:13:56.306Z,14.23
2022-10-30T10:16:29.041Z,14.65
2022-10-30T10:19:12.019Z,14.93
2022-10-30T10:21:56.666Z,15.05
2022-10-30T10:24:27.423Z,15.05
2022-10-30T10:27:01.821Z,15.90
2022-10-30T10:29:35.127Z,15.13
2022-10-30T10:32:28.389Z,15.38
2022-10-30T10:34:59.146Z,15.18
2022-10-30T10:37:41.109Z,15.98
2022-10-30T10:40:28.947Z,15.55
2022-10-30T10:43:30.561Z,15.07
2022-10-30T10:46:19.828Z,15.88
2022-10-30T10:49:03.506Z,15.05
2022-10-30T10:51:36.694Z,15.63
2022-10-30T10:54:21.981Z,19.85
2022-10-30T10:56:50.564Z,15.85
2022-10-30T10:59:21.339Z,16.05
2022-10-30T11:01:58.053Z,15.43
2022-10-30T11:04:39.899Z,16.08
2022-10-30T11:07:30.670Z,16.67
2022-10-30T11:09:58.416Z,15.82
2022-10-30T11:12:30.988Z,16.45
2022-10-30T11:15:28.429Z,17.30
2022-10-30T11:18:01.130Z,15.93
2022-10-30T11:21:09.635Z,16.45
2022-10-30T11:23:46.238Z,15.65
2022-10-30T11:26:17.659Z,15.27
2022-10-30T11:29:14.768Z,16.92
2022-10-30T11:31:44.513Z,16.05
2022-10-30T11:34:18.153Z,15.55
2022-10-30T11:36:51.334Z,16.10
2022-10-30T11:39:20.842Z,15.60
2022-10-30T11:42:00.910Z,17.25
2022-10-30T11:44:38.864Z,16.05
2022-10-30T11:47:08.551Z,17.40
2022-10-30T11:49:58.781Z,16.05
2022-10-30T11:52:27.762Z,15.82
2022-10-30T11:55:08.997Z,17.30
2022-10-30T11:57:41.585Z,15.85
2022-10-30T12:00:24.483Z,15.30
2022-10-30T12:02:56.361Z,15.98
2022-10-30T12:05:38.532Z,16.50
2022-10-30T12:08:06.387Z,15.80
2022-10-30T12:10:46.323Z,16.00
2022-10-30T12:13:15.879Z,15.68
2022-10-30T12:15:45.739Z,16.05
2022-10-30T12:18:22.567Z,14.73
2022-10-30T12:20:56.070Z,15.20
2022-10-30T12:23:26.008Z,16.45
2022-10-30T12:25:56.121Z,15.73
2022-10-30T12:28:26.333Z,16.52
2022-10-30T12:31:01.967Z,15.05
2022-10-30T12:33:39.210Z,14.00
2022-10-30T12:36:13.068Z,15.60
2022-10-30T12:39:03.916Z,15.10
2022-10-30T12:41:41.497Z,15.00
2022-10-30T12:44:21.659Z,15.73
2022-10-30T12:47:06.799Z,15.00
2022-10-30T12:49:41.710Z,15.10
2022-10-30T12:52:18.999Z,14.20
2022-10-30T12:55:01.290Z,15.07
2022-10-30T12:57:32.307Z,16.23
2022-10-30T13:00:04.328Z,14.10
2022-10-30T13:02:57.647Z,14.38
2022-10-30T13:05:40.363Z,15.05
2022-10-30T13:08:26.999Z,15.25
2022-10-30T13:11:03.279Z,14.90
2022-10-30T13:13:41.521Z,15.85
2022-10-30T13:16:16.326Z,15.82
2022-10-30T13:18:44.685Z,15.27
2022-10-30T13:21:36.038Z,16.40
2022-10-30T13:24:12.698Z,16.17
2022-10-30T13:26:50.999Z,16.65
2022-10-30T13:29:37.689Z,17.05
2022-10-30T13:32:14.389Z,17.45
2022-10-30T13:34:56.143Z,16.75
2022-10-30T13:37:42.408Z,17.17
2022-10-30T13:40:19.255Z,17.70
2022-10-30T13:42:57.028Z,16.67
2022-10-30T13:45:40.104Z,16.15
2022-10-30T13:48:32.525Z,17.80
2022-10-30T13:51:27.972Z,16.50
2022-10-30T13:54:05.144Z,17.62
2022-10-30T13:56:34.103Z,16.30
2022-10-30T13:59:07.109Z,16.27
2022-10-30T14:01:49.583Z,17.45
2022-10-30T14:04:35.707Z,17.55
2022-10-30T14:07:41.025Z,17.15
2022-10-30T14:10:12.619Z,16.00
2022-10-30T14:13:05.597Z,15.90
2022-10-30T14:15:40.965Z,16.55
2022-10-30T14:20:53.039Z,15.98
2022-10-30T14:23:23.388Z,18.10
2022-10-30T14:26:06.327Z,17.25
2022-10-30T14:28:35.600Z,17.27
2022-10-30T14:31:10.676Z,15.70
2022-10-30T14:33:44.358Z,14.98
2022-10-30T14:36:33.680Z,16.20
2022-10-30T14:39:22.311Z,14.87
2022-10-30T14:42:06.282Z,15.35
2022-10-30T14:45:03.552Z,15.73
2022-10-30T14:47:56.185Z,16.92
2022-10-30T14:50:27.643Z,15.75
2022-10-30T14:53:10.328Z,15.63
2022-10-30T14:56:01.993Z,19.02
2022-10-30T14:58:33.363Z,18.33
2022-10-30T15:01:04.684Z,19.23
2022-10-30T15:03:48.268Z,17.25
2022-10-30T15:06:29.877Z,17.17
2022-10-30T15:09:26.955Z,17.23
2022-10-30T15:12:34.735Z,18.52
2022-10-30T15:15:06.289Z,19.75
2022-10-30T15:17:43.072Z,18.30
2022-10-30T15:20:20.887Z,17.77
2022-10-30T15:22:53.302Z,17.37
2022-10-30T15:25:24.495Z,17.37
2022-10-30T15:27:55.087Z,17.60
2022-10-30T15:30:25.250Z,16.80
2022-10-30T15:32:53.684Z,17.83
2022-10-30T15:35:28.833Z,18.42
2022-10-30T15:38:05.808Z,19.50
2022-10-30T15:40:39.931Z,21.27
2022-10-30T15:43:10.917Z,22.40
2022-10-30T15:45:42.336Z,21.48
2022-10-30T15:48:30.925Z,20.95
2022-10-30T15:51:08.142Z,24.77
2022-10-30T15:53:40.468Z,22.65
2022-10-30T15:56:18.215Z,21.65
2022-10-30T15:58:58.656Z,22.70
2022-10-30T16:01:38.614Z,23.23
2022-10-30T16:04:21.825Z,29.77
2022-10-30T16:06:57.405Z,40.28
2022-10-30T16:09:26.958Z,23.33
2022-10-30T16:11:57.803Z,22.87
2022-10-30T16:14:28.642Z,22.60
2022-10-30T16:17:00.510Z,23.08
2022-10-30T16:19:32.055Z,24.67
2022-10-30T16:21:59.818Z,20.12
2022-10-30T16:24:34.824Z,22.33
2022-10-30T16:27:08.068Z,21.48
2022-10-30T16:29:37.122Z,20.45
2022-10-30T16:32:09.834Z,21.08
2022-10-30T16:34:38.869Z,20.55
2022-10-30T16:37:07.237Z,20.17
2022-10-30T16:39:35.255Z,19.02
2022-10-30T16:42:04.132Z,20.37
2022-10-30T16:44:33.856Z,20.67
2022-10-30T16:47:17.807Z,19.45
2022-10-30T16:49:58.054Z,22.13
2022-10-30T16:52:30.815Z,21.92
2022-10-30T16:55:05.590Z,21.52
2022-10-30T16:57:40.825Z,20.40
2022-10-30T17:00:24.437Z,20.20
2022-10-30T17:02:57.142Z,21.45
2022-10-30T17:05:28.409Z,21.42
2022-10-30T17:07:58.696Z,21.87
2022-10-30T17:10:42.949Z,22.60
2022-10-30T17:13:34.722Z,20.88
2022-10-30T17:16:25.745Z,20.95
2022-10-30T17:18:59.256Z,22.27
2022-10-30T17:21:48.361Z,22.75
2022-10-30T17:24:25.771Z,22.62
2022-10-30T17:26:55.909Z,21.50
2022-10-30T17:29:41.806Z,22.67
2022-10-30T17:32:24.611Z,22.37
2022-10-30T17:35:13.750Z,21.45
2022-10-30T17:37:42.526Z,23.27
2022-10-30T17:40:12.366Z,23.05
2022-10-30T17:42:40.896Z,23.30
2022-10-30T17:45:17.398Z,24.30
2022-10-30T17:47:44.860Z,22.98
2022-10-30T17:50:14.457Z,23.50
2022-10-30T17:52:42.313Z,23.38
2022-10-30T17:55:30.274Z,24.27
2022-10-30T17:57:58.481Z,22.00
2022-10-30T18:00:27.086Z,21.20
2022-10-30T18:02:55.852Z,21.98
2022-10-30T18:05:26.370Z,22.23
2022-10-30T18:07:54.756Z,23.90
2022-10-30T18:10:24.050Z,21.23
2022-10-30T18:12:52.089Z,22.48
2022-10-30T18:15:27.513Z,34.47
2022-10-30T18:17:56.893Z,26.48
2022-10-30T18:20:25.359Z,25.27
2022-10-30T18:22:56.266Z,23.77
2022-10-30T18:25:36.805Z,22.08
2022-10-30T18:28:04.978Z,21.10
2022-10-30T18:30:33.391Z,22.13
2022-10-30T18:33:01.557Z,21.23
2022-10-30T18:35:39.840Z,22.73
2022-10-30T18:38:09.777Z,21.30
2022-10-30T18:40:37.745Z,21.55
2022-10-30T18:43:05.961Z,23.77
2022-10-30T18:45:37.436Z,23.40
2022-10-30T18:48:06.250Z,26.40
2022-10-30T18:50:36.256Z,23.92
2022-10-30T18:53:17.482Z,25.00
2022-10-30T18:55:45.426Z,25.17
2022-10-30T18:58:13.550Z,22.58
2022-10-30T19:01:10.085Z,23.80
2022-10-30T19:03:31.001Z,25.52
2022-10-30T19:05:59.241Z,23.25
2022-10-30T19:08:27.603Z,23.83
2022-10-30T19:10:58.323Z,25.55
2022-10-30T19:13:26.321Z,25.42
2022-10-30T19:16:00.414Z,28.00
2022-10-30T19:18:31.433Z,27.05
2022-10-30T19:21:04.996Z,26.98
2022-10-30T19:23:34.375Z,26.48
2022-10-30T19:26:02.807Z,27.00
2022-10-30T19:28:31.890Z,27.67
2022-10-30T19:31:01.221Z,26.20
2022-10-30T19:33:29.244Z,27.25
2022-10-30T19:35:59.841Z,24.85
2022-10-30T19:38:29.160Z,25.37
2022-10-30T19:40:58.332Z,24.65
2022-10-30T19:43:26.382Z,26.35
2022-10-30T19:45:57.174Z,25.15
2022-10-30T19:48:55.435Z,25.15
2022-10-30T19:51:14.616Z,26.75
2022-10-30T19:53:43.177Z,25.88
2022-10-30T19:56:15.612Z,26.85
2022-10-30T19:58:45.271Z,26.00
2022-10-30T20:01:14.284Z,26.02
2022-10-30T20:03:42.725Z,26.20
2022-10-30T20:06:12.605Z,24.70
2022-10-30T20:08:40.654Z,26.05
2022-10-30T20:11:09.113Z,25.37
2022-10-30T20:13:37.632Z,25.23
2022-10-30T20:16:06.244Z,23.62
2022-10-30T20:18:36.383Z,25.65
2022-10-30T20:21:10.336Z,25.23
2022-10-30T20:23:38.832Z,25.70
2022-10-30T20:26:13.960Z,26.17
2022-10-30T20:28:43.016Z,26.45
2022-10-30T20:31:12.670Z,25.62
2022-10-30T20:33:40.534Z,25.45
2022-10-30T20:36:12.287Z,25.62
2022-10-30T20:38:40.633Z,26.50
2022-10-30T20:41:21.256Z,26.27
2022-10-30T20:43:50.674Z,26.85
2022-10-30T20:46:20.339Z,25.35
2022-10-30T20:48:49.020Z,24.15
2022-10-30T20:51:16.789Z,26.37
2022-10-30T20:53:45.346Z,27.85
2022-10-30T20:56:15.244Z,24.95
2022-10-30T20:58:42.822Z,25.35
2022-10-30T21:01:11.815Z,24.48
2022-10-30T21:03:40.020Z,25.33
2022-10-30T21:06:10.009Z,26.83
2022-10-30T21:08:39.671Z,25.27
2022-10-30T21:11:08.386Z,26.48
2022-10-30T21:13:36.902Z,26.00
2022-10-30T21:16:08.088Z,26.77
2022-10-30T21:18:35.918Z,27.40
2022-10-30T21:21:05.644Z,26.75
2022-10-30T21:23:34.480Z,26.10
2022-10-30T21:26:04.911Z,26.37
2022-10-30T21:28:32.949Z,27.35
2022-10-30T21:31:05.686Z,27.23
2022-10-30T21:33:35.124Z,28.23
2022-10-30T21:36:16.530Z,26.55
2022-10-30T21:38:46.412Z,26.85
2022-10-30T21:41:17.157Z,27.65
2022-10-30T21:43:50.607Z,27.48
2022-10-30T21:46:18.350Z,26.37
2022-10-30T21:48:46.320Z,26.15
2022-10-30T21:51:20.207Z,25.73
2022-10-30T21:53:48.837Z,27.52
2022-10-30T21:56:22.358Z,26.73
2022-10-30T21:58:51.176Z,25.92
2022-10-30T22:01:24.368Z,25.50
2022-10-30T22:03:52.866Z,26.12
2022-10-30T22:06:22.342Z,26.83
2022-10-30T22:08:52.107Z,26.50
2022-10-30T22:11:22.311Z,27.67
2022-10-30T22:13:58.943Z,25.88
2022-10-30T22:16:28.644Z,27.05
2022-10-30T22:18:57.426Z,28.62
2022-10-30T22:21:25.280Z,27.33
2022-10-30T22:23:53.014Z,28.25
2022-10-30T22:26:22.482Z,28.77
2022-10-30T22:28:54.888Z,28.85
2022-10-30T22:31:24.613Z,30.50
2022-10-30T22:33:52.801Z,28.62
2022-10-30T22:36:24.125Z,28.85
2022-10-30T22:38:58.263Z,28.38
2022-10-30T22:41:28.675Z,29.40
2022-10-30T22:44:00.099Z,28.77
2022-10-30T22:46:29.958Z,27.73
2022-10-30T22:48:58.104Z,27.40
2022-10-30T22:51:26.486Z,27.98
2022-10-30T22:54:00.750Z,28.02
2022-10-30T22:56:31.356Z,30.43
2022-10-30T22:59:01.780Z,30.30
2022-10-30T23:01:33.776Z,29.80
2022-10-30T23:04:02.409Z,32.17
2022-10-30T23:06:31.382Z,27.30
2022-10-30T23:09:01.226Z,28.40
2022-10-30T23:11:29.136Z,30.02
2022-10-30T23:13:57.278Z,28.67
2022-10-30T23:16:26.261Z,26.08
2022-10-30T23:18:56.460Z,27.15
2022-10-30T23:21:26.396Z,26.98
2022-10-30T23:23:54.572Z,28.85
2022-10-30T23:26:34.112Z,29.35
2022-10-30T23:29:03.039Z,32.83
2022-10-30T23:31:35.618Z,31.50
2022-10-30T23:34:06.647Z,33.05
2022-10-30T23:36:35.137Z,32.35
2022-10-30T23:39:07.918Z,31.73
2022-10-30T23:41:36.144Z,33.30
2022-10-30T23:44:10.185Z,31.62
2022-10-30T23:46:37.737Z,32.25
2022-10-30T23:49:06.409Z,32.33
2022-10-30T23:51:34.185Z,31.65
2022-10-30T23:54:01.883Z,30.25
2022-10-30T23:56:30.095Z,29.90
2022-10-30T23:58:58.262Z,27.95
